Time;durP1;ratioP1;P1;durP2;ratioP2;P2;SDS_P1;SDS_P2;PMS_P1;PMS_P2;Temp;Humidity;BMP_temperature;BMP_pressure;BME280_temperature;BME280_humidity;BME280_pressure;Samples;Min_cycle;Max_cycle;Signal;HPM_P1;HPM_P2
2024/04/21 00:00:46;;;;;;;24.23;14.07;;;282.50;2022.40;;;;;;5447881;26;20002;-72
2024/04/21 00:03:12;;;;;;;10.65;6.40;;;282.50;2022.40;;;;;;5448038;26;20451;-73
2024/04/21 00:05:37;;;;;;;13.93;7.45;;;307.20;2022.40;;;;;;5447346;26;19999;-70
2024/04/21 00:08:04;;;;;;;13.60;6.50;;;307.20;2048.00;;;;;;5448225;26;19998;-74
2024/04/21 00:10:30;;;;;;;14.18;9.48;;;307.20;2048.00;;;;;;5448003;26;20003;-71
2024/04/21 00:12:56;;;;;;;14.88;7.72;;;282.50;2022.40;;;;;;5447418;26;20006;-71
2024/04/21 00:15:22;;;;;;;15.88;8.50;;;307.20;2048.00;;;;;;5447250;26;20003;-72
2024/04/21 00:17:48;;;;;;;9.75;6.70;;;282.50;2022.40;;;;;;5448851;26;19995;-72
2024/04/21 00:20:14;;;;;;;11.30;5.95;;;282.40;2048.00;;;;;;5447850;26;20036;-71
2024/04/21 00:22:39;;;;;;;9.57;6.53;;;282.40;2048.00;;;;;;5448460;26;20531;-72
2024/04/21 00:25:05;;;;;;;14.95;6.55;;;282.40;2048.00;;;;;;5432648;26;20481;-71
2024/04/21 00:27:31;;;;;;;12.10;6.28;;;282.40;2048.00;;;;;;5448204;26;20551;-72
2024/04/21 00:29:57;;;;;;;11.00;7.50;;;282.30;2073.60;;;;;;5447565;26;20017;-72
2024/04/21 00:32:23;;;;;;;12.07;5.63;;;282.30;2073.60;;;;;;5448020;26;20018;-72
2024/04/21 00:34:49;;;;;;;10.57;5.30;;;282.20;2073.60;;;;;;5447641;26;20071;-71
2024/04/21 00:37:14;;;;;;;11.07;9.70;;;282.20;2073.60;;;;;;5465963;26;19995;-72
2024/04/21 00:39:40;;;;;;;8.27;5.53;;;282.20;2073.60;;;;;;5447383;26;20360;-71
2024/04/21 00:42:06;;;;;;;11.05;5.80;;;282.20;2073.60;;;;;;5447876;26;19995;-71
2024/04/21 00:44:32;;;;;;;7.32;5.85;;;282.20;2073.60;;;;;;5447009;26;20017;-71
2024/04/21 00:46:58;;;;;;;7.93;4.78;;;282.20;2073.60;;;;;;5448326;26;20485;-72
2024/04/21 00:49:25;;;;;;;8.38;5.15;;;282.20;2073.60;;;;;;5446858;26;20039;-71
2024/04/21 00:51:51;;;;;;;8.55;5.10;;;282.20;2073.60;;;;;;5448253;26;20441;-72
2024/04/21 00:54:17;;;;;;;6.40;5.13;;;282.20;2099.20;;;;;;5447222;26;19999;-71
2024/04/21 00:56:43;;;;;;;9.15;4.75;;;282.20;2073.60;;;;;;5447413;26;20028;-72
2024/04/21 00:59:13;;;;;;;7.40;5.60;;;282.10;2099.20;;;;;;5446695;26;19999;-72
2024/04/21 01:01:39;;;;;;;6.03;4.25;;;282.10;2099.20;;;;;;5449371;26;20007;-76
2024/04/21 01:04:05;;;;;;;9.48;5.60;;;282.10;2099.20;;;;;;5448054;26;20083;-78
2024/04/21 01:06:31;;;;;;;7.10;5.68;;;282.10;2099.20;;;;;;5449139;26;20013;-73
2024/04/21 01:08:57;;;;;;;12.75;4.70;;;282.10;2099.20;;;;;;5449036;26;20003;-76
2024/04/21 01:11:23;;;;;;;15.77;9.02;;;282.20;2099.20;;;;;;5449134;26;20003;-77
2024/04/21 01:13:49;;;;;;;7.78;4.35;;;282.30;2099.20;;;;;;5449109;26;19999;-74
2024/04/21 01:16:16;;;;;;;9.25;3.58;;;282.00;2073.60;;;;;;5450773;26;20003;-74
2024/04/21 01:18:44;;;;;;;6.53;3.63;;;282.20;2099.20;;;;;;5447060;26;19999;-72
2024/04/21 01:21:10;;;;;;;7.57;3.53;;;282.20;2099.20;;;;;;5447646;26;19999;-72
2024/04/21 01:23:37;;;;;;;6.90;4.03;;;282.20;2099.20;;;;;;5446332;26;20011;-71
2024/04/21 01:26:03;;;;;;;8.57;5.53;;;282.50;2099.20;;;;;;5447385;26;20325;-72
2024/04/21 01:28:29;;;;;;;8.77;4.53;;;282.20;2099.20;;;;;;5446501;26;20011;-71
2024/04/21 01:30:55;;;;;;;7.72;4.20;;;282.20;2099.20;;;;;;5447254;26;20350;-72
2024/04/21 01:33:21;;;;;;;7.65;4.70;;;282.00;2124.80;;;;;;5446612;26;20543;-73
2024/04/21 01:35:48;;;;;;;6.00;3.33;;;282.00;2124.80;;;;;;5447179;26;20003;-72
2024/04/21 01:38:14;;;;;;;6.95;3.22;;;282.00;2124.80;;;;;;5447137;26;20445;-72
2024/04/21 01:40:40;;;;;;;6.13;4.07;;;281.90;2124.80;;;;;;5447872;26;20317;-71
2024/04/21 01:43:06;;;;;;;6.55;3.60;;;281.70;2150.40;;;;;;5432471;26;20003;-72
2024/04/21 01:45:31;;;;;;;5.72;2.90;;;281.70;2150.40;;;;;;5447181;26;20058;-72
2024/04/21 01:47:57;;;;;;;10.55;5.53;;;281.60;2176.00;;;;;;5447428;26;19999;-71
2024/04/21 01:50:24;;;;;;;7.13;3.45;;;256.80;2150.40;;;;;;5446902;26;20003;-71
2024/04/21 01:52:50;;;;;;;4.88;2.78;;;256.80;2176.00;;;;;;5447159;26;20011;-72
2024/04/21 01:55:16;;;;;;;5.15;3.10;;;256.80;2176.00;;;;;;5446995;26;20390;-72
2024/04/21 01:57:43;;;;;;;4.60;3.03;;;256.70;2176.00;;;;;;5449340;26;19999;-75
2024/04/21 02:00:09;;;;;;;4.43;3.97;;;256.70;2176.00;;;;;;5449837;26;20013;-72
2024/04/21 02:02:35;;;;;;;3.75;3.10;;;256.70;2176.00;;;;;;5447232;26;19995;-72
2024/04/21 02:05:01;;;;;;;4.43;2.88;;;256.50;2227.20;;;;;;5446898;26;20068;-71
2024/04/21 02:07:27;;;;;;;7.78;4.22;;;256.40;2252.80;;;;;;5446806;26;19999;-72
2024/04/21 02:09:53;;;;;;;5.63;3.20;;;256.30;2252.80;;;;;;5445366;26;20000;-72
2024/04/21 02:12:18;;;;;;;5.15;2.97;;;256.30;2252.80;;;;;;5447430;26;20075;-72
2024/04/21 02:14:44;;;;;;;7.90;4.07;;;256.30;2252.80;;;;;;5445636;26;20006;-75
2024/04/21 02:17:10;;;;;;;6.45;3.53;;;256.20;2252.80;;;;;;5447210;26;20009;-71
2024/04/21 02:19:36;;;;;;;5.60;3.63;;;256.10;2252.80;;;;;;5445599;26;20005;-71
2024/04/21 02:22:02;;;;;;;12.90;4.88;;;256.10;2252.80;;;;;;5447104;26;20013;-71
2024/04/21 02:24:42;;;;;;;4.60;2.83;;;256.20;2252.80;;;;;;5445424;26;19995;-71
2024/04/21 02:27:08;;;;;;;4.53;2.80;;;256.10;2252.80;;;;;;5446532;26;20010;-71
2024/04/21 02:29:34;;;;;;;14.38;7.50;;;256.00;2252.80;;;;;;5444772;26;20026;-71
2024/04/21 02:32:00;;;;;;;4.38;3.22;;;231.30;2252.80;;;;;;5446952;26;20010;-72
2024/04/21 02:34:26;;;;;;;10.60;6.30;;;231.30;2252.80;;;;;;5445837;26;20007;-72
2024/04/21 02:36:52;;;;;;;7.45;4.22;;;231.30;2252.80;;;;;;5446952;26;20013;-72
2024/04/21 02:39:20;;;;;;;10.52;9.63;;;231.30;2252.80;;;;;;5444902;26;20018;-71
2024/04/21 02:41:47;;;;;;;11.70;8.40;;;231.20;2252.80;;;;;;5446909;26;20035;-72
2024/04/21 02:44:13;;;;;;;6.05;3.85;;;231.20;2252.80;;;;;;5445130;26;20453;-73
2024/04/21 02:46:39;;;;;;;4.22;2.83;;;231.20;2252.80;;;;;;5447476;26;20076;-73
2024/04/21 02:49:05;;;;;;;4.38;2.70;;;231.10;2252.80;;;;;;5445056;26;19998;-72
2024/04/21 02:51:31;;;;;;;7.13;3.22;;;231.10;2252.80;;;;;;5447644;26;19999;-72
2024/04/21 02:53:57;;;;;;;4.20;2.45;;;231.20;2252.80;;;;;;5445604;26;20013;-71
2024/04/21 02:56:22;;;;;;;3.92;2.50;;;231.10;2252.80;;;;;;5446182;26;19999;-72
2024/04/21 02:58:48;;;;;;;7.43;4.88;;;231.00;2252.80;;;;;;5445356;26;20336;-73
2024/04/21 03:01:14;;;;;;;4.38;3.10;;;231.10;2252.80;;;;;;5445959;26;20466;-71
2024/04/21 03:03:40;;;;;;;5.15;2.97;;;231.10;2252.80;;;;;;5445289;26;19999;-71
2024/04/21 03:06:06;;;;;;;4.38;2.50;;;231.10;2252.80;;;;;;5446405;26;20003;-71
2024/04/21 03:08:32;;;;;;;4.38;2.90;;;231.20;2252.80;;;;;;5445065;26;20344;-72
2024/04/21 03:10:57;;;;;;;4.70;3.17;;;231.30;2252.80;;;;;;5446235;26;20014;-72
2024/04/21 03:13:25;;;;;;;5.00;3.40;;;231.30;2252.80;;;;;;5444727;26;19999;-72
2024/04/21 03:15:51;;;;;;;7.65;5.57;;;231.20;2252.80;;;;;;5445669;26;20040;-71
2024/04/21 03:18:17;;;;;;;4.63;3.22;;;231.30;2252.80;;;;;;5445204;26;19999;-72
2024/04/21 03:20:42;;;;;;;4.18;2.65;;;231.30;2252.80;;;;;;5445509;26;20019;-71
2024/04/21 03:23:08;;;;;;;4.28;2.65;;;231.30;2252.80;;;;;;5445256;26;20018;-71
2024/04/21 03:25:35;;;;;;;4.18;2.83;;;231.30;2252.80;;;;;;5445075;26;20366;-72
2024/04/21 03:28:00;;;;;;;5.82;2.50;;;231.10;2252.80;;;;;;5444422;26;20021;-71
2024/04/21 03:30:26;;;;;;;5.35;2.90;;;231.20;2252.80;;;;;;5445054;26;20438;-71
2024/04/21 03:32:52;;;;;;;6.10;2.55;;;231.10;2252.80;;;;;;5444242;26;20043;-74
2024/04/21 03:35:18;;;;;;;4.03;2.60;;;231.10;2252.80;;;;;;5445308;26;19999;-75
2024/04/21 03:37:44;;;;;;;5.13;2.53;;;231.30;2252.80;;;;;;5444626;26;20458;-71
2024/04/21 03:40:10;;;;;;;6.13;3.47;;;231.20;2252.80;;;;;;5446065;26;19995;-72
2024/04/21 03:42:36;;;;;;;5.13;2.83;;;231.30;2252.80;;;;;;5448082;26;20010;-71
2024/04/21 03:45:05;;;;;;;147.43;118.65;;;231.30;2252.80;;;;;;5448456;26;20002;-71
2024/04/21 03:47:31;;;;;;;15.05;8.00;;;231.30;2252.80;;;;;;5448254;26;20416;-72
2024/04/21 03:49:57;;;;;;;11.85;10.30;;;256.00;2252.80;;;;;;5449490;26;20002;-71
2024/04/21 03:52:23;;;;;;;7.57;5.13;;;231.20;2252.80;;;;;;5448263;26;20002;-72
2024/04/21 03:54:50;;;;;;;7.82;3.33;;;231.20;2252.80;;;;;;5449265;26;20343;-71
2024/04/21 03:57:16;;;;;;;14.88;7.55;;;231.10;2252.80;;;;;;5448212;26;19999;-71
2024/04/21 03:59:42;;;;;;;6.88;3.63;;;231.20;2252.80;;;;;;5448491;26;20042;-72
2024/04/21 04:02:08;;;;;;;7.95;4.32;;;231.20;2252.80;;;;;;5448992;26;20013;-72
2024/04/21 04:04:34;;;;;;;27.38;13.32;;;231.20;2252.80;;;;;;5448471;26;20013;-71
2024/04/21 04:06:59;;;;;;;7.57;4.70;;;231.30;2252.80;;;;;;5448712;26;20014;-72
2024/04/21 04:09:25;;;;;;;4.55;2.28;;;231.30;2252.80;;;;;;5448386;26;20002;-72
2024/04/21 04:11:51;;;;;;;4.38;3.10;;;231.20;2252.80;;;;;;5448189;26;20013;-72
2024/04/21 04:14:17;;;;;;;19.23;10.15;;;231.20;2252.80;;;;;;5448704;26;20437;-77
2024/04/21 04:16:43;;;;;;;6.78;4.55;;;231.30;2252.80;;;;;;5447715;26;20449;-72
2024/04/21 04:19:09;;;;;;;11.50;5.88;;;231.30;2252.80;;;;;;5448774;26;20441;-72
2024/04/21 04:21:36;;;;;;;7.57;5.13;;;231.20;2252.80;;;;;;5448277;26;20007;-72
2024/04/21 04:24:01;;;;;;;5.68;3.28;;;231.30;2252.80;;;;;;5448471;26;20444;-71
2024/04/21 04:26:27;;;;;;;3.45;2.28;;;231.30;2252.80;;;;;;5447934;26;20013;-73
2024/04/21 04:28:53;;;;;;;4.50;2.33;;;256.00;2252.80;;;;;;5448132;26;20014;-71
2024/04/21 04:31:19;;;;;;;3.72;2.30;;;231.30;2252.80;;;;;;5448428;26;20502;-73
2024/04/21 04:33:45;;;;;;;3.65;2.03;;;231.30;2252.80;;;;;;5447889;26;20034;-72
2024/04/21 04:36:11;;;;;;;3.35;2.38;;;231.20;2252.80;;;;;;5448302;26;19999;-72
2024/04/21 04:38:37;;;;;;;5.07;3.08;;;231.20;2252.80;;;;;;5448591;26;20352;-79
2024/04/21 04:41:05;;;;;;;3.85;2.65;;;231.20;2252.80;;;;;;5448009;26;20337;-72
2024/04/21 04:43:31;;;;;;;7.38;4.30;;;231.20;2252.80;;;;;;5448029;26;20021;-72
2024/04/21 04:45:57;;;;;;;4.88;3.22;;;231.30;2252.80;;;;;;5447881;26;20003;-71
2024/04/21 04:48:23;;;;;;;5.68;2.47;;;231.30;2252.80;;;;;;5447553;26;20017;-73
2024/04/21 04:50:48;;;;;;;5.13;2.78;;;256.00;2252.80;;;;;;5447485;26;20445;-72
2024/04/21 04:53:14;;;;;;;18.90;8.32;;;231.30;2252.80;;;;;;5446998;26;19998;-73
2024/04/21 04:55:43;;;;;;;47.97;24.10;;;256.20;2252.80;;;;;;5447964;26;20003;-78
2024/04/21 04:58:09;;;;;;;71.45;48.65;;;231.30;2252.80;;;;;;5455313;26;20010;-72
2024/04/21 05:00:35;;;;;;;6.72;4.30;;;231.20;2252.80;;;;;;5412007;26;20004;-71
2024/04/21 05:03:00;;;;;;;6.00;3.00;;;231.30;2252.80;;;;;;5410717;26;20022;-72
2024/04/21 05:05:26;;;;;;;5.82;4.18;;;256.00;2252.80;;;;;;5411804;26;20008;-71
2024/04/21 05:07:52;;;;;;;5.43;3.13;;;231.30;2252.80;;;;;;5411175;26;20004;-73
2024/04/21 05:10:18;;;;;;;5.90;3.08;;;231.30;2252.80;;;;;;5411675;26;20000;-71
2024/04/21 05:12:46;;;;;;;4.85;3.47;;;231.30;2252.80;;;;;;5410862;26;20763;-72
2024/04/21 05:15:12;;;;;;;4.63;3.30;;;231.30;2252.80;;;;;;5411736;26;20012;-74
2024/04/21 05:17:37;;;;;;;5.53;3.70;;;256.10;2252.80;;;;;;5410908;26;20532;-72
2024/04/21 05:20:04;;;;;;;7.30;4.00;;;256.10;2252.80;;;;;;5411720;26;20004;-76
2024/04/21 05:22:29;;;;;;;7.60;6.53;;;256.10;2252.80;;;;;;5410766;26;20015;-72
2024/04/21 05:24:55;;;;;;;6.20;3.92;;;256.20;2252.80;;;;;;5411528;26;19999;-71
2024/04/21 05:27:21;;;;;;;5.53;3.50;;;256.20;2252.80;;;;;;5411011;26;20004;-73
2024/04/21 05:29:47;;;;;;;7.55;3.47;;;256.20;2252.80;;;;;;5411505;26;20038;-71
2024/04/21 05:32:13;;;;;;;6.10;4.05;;;256.30;2252.80;;;;;;5410628;26;20361;-73
2024/04/21 05:34:38;;;;;;;19.75;17.60;;;256.40;2252.80;;;;;;5410686;26;20329;-70
2024/04/21 05:37:04;;;;;;;11.10;3.97;;;256.30;2252.80;;;;;;5405767;26;20014;-71
2024/04/21 05:39:30;;;;;;;4.80;3.70;;;256.30;2252.80;;;;;;5412038;26;20011;-71
2024/04/21 05:41:57;;;;;;;6.65;4.45;;;256.40;2252.80;;;;;;5410536;26;20461;-71
2024/04/21 05:44:23;;;;;;;5.60;3.72;;;256.30;2252.80;;;;;;5411141;26;20421;-74
2024/04/21 05:46:48;;;;;;;4.75;3.65;;;256.10;2252.80;;;;;;5410414;26;20014;-73
2024/04/21 05:49:14;;;;;;;4.70;3.30;;;256.00;2252.80;;;;;;5412076;26;20017;-71
2024/04/21 05:51:40;;;;;;;4.80;3.80;;;256.00;2252.80;;;;;;5411472;26;20015;-73
2024/04/21 05:54:06;;;;;;;9.15;3.50;;;256.00;2252.80;;;;;;5410857;26;20003;-75
2024/04/21 05:56:32;;;;;;;5.60;4.18;;;231.30;2252.80;;;;;;5410618;26;20018;-72
2024/04/21 05:58:58;;;;;;;6.88;3.95;;;256.00;2252.80;;;;;;5411501;26;20454;-79
2024/04/21 06:01:23;;;;;;;7.00;4.45;;;256.10;2252.80;;;;;;5410959;26;20004;-78
2024/04/21 06:03:49;;;;;;;7.95;4.85;;;256.30;2252.80;;;;;;5409522;26;20007;-72
2024/04/21 06:06:21;;;;;;;6.53;4.38;;;256.40;2252.80;;;;;;5410220;26;20007;-73
2024/04/21 06:08:48;;;;;;;6.70;4.38;;;256.20;2252.80;;;;;;5395074;26;20082;-72
2024/04/21 06:11:13;;;;;;;6.10;4.97;;;256.20;2252.80;;;;;;5409317;26;20075;-76
2024/04/21 06:13:39;;;;;;;9.23;6.82;;;256.20;2252.80;;;;;;5411142;26;20089;-72
2024/04/21 06:16:05;;;;;;;6.50;5.78;;;256.40;2252.80;;;;;;5410122;26;20000;-71
2024/04/21 06:18:31;;;;;;;9.13;7.72;;;256.50;2252.80;;;;;;5411097;26;20035;-71
2024/04/21 06:20:57;;;;;;;7.38;4.90;;;256.50;2252.80;;;;;;5410486;26;20104;-71
2024/04/21 06:23:23;;;;;;;8.77;7.18;;;256.30;2252.80;;;;;;5410537;26;20015;-73
2024/04/21 06:25:49;;;;;;;11.77;8.40;;;256.30;2252.80;;;;;;5409653;26;20439;-71
2024/04/21 06:28:16;;;;;;;17.45;13.20;;;256.20;2252.80;;;;;;5410178;26;20069;-72
2024/04/21 06:30:42;;;;;;;29.55;19.48;;;256.40;2252.80;;;;;;5410217;26;20003;-72
2024/04/21 06:33:08;;;;;;;13.02;9.15;;;256.40;2252.80;;;;;;5410742;26;19999;-72
2024/04/21 06:35:34;;;;;;;18.63;14.70;;;256.50;2252.80;;;;;;5409401;26;20015;-71
2024/04/21 06:38:00;;;;;;;10.50;8.55;;;256.50;2252.80;;;;;;5410500;26;20057;-72
2024/04/21 06:40:26;;;;;;;10.52;8.20;;;256.50;2252.80;;;;;;5409067;26;20015;-73
2024/04/21 06:42:51;;;;;;;10.88;8.52;;;256.50;2252.80;;;;;;5410539;26;20011;-72
2024/04/21 06:45:17;;;;;;;14.60;9.98;;;256.40;2252.80;;;;;;5409971;26;20436;-73
2024/04/21 06:47:43;;;;;;;24.95;13.85;;;256.20;2252.80;;;;;;5410486;26;20019;-73
2024/04/21 06:50:09;;;;;;;11.88;8.65;;;256.20;2252.80;;;;;;5409198;26;20555;-72
2024/04/21 06:52:34;;;;;;;30.48;15.70;;;256.10;2252.80;;;;;;5410323;26;20028;-72
2024/04/21 06:55:00;;;;;;;14.23;11.00;;;256.10;2252.80;;;;;;5408448;26;20014;-71
2024/04/21 06:57:27;;;;;;;13.18;8.93;;;256.10;2252.80;;;;;;5409077;26;19999;-72
2024/04/21 06:59:52;;;;;;;22.55;14.73;;;256.10;2252.80;;;;;;5408836;26;19999;-72
2024/04/21 07:02:18;;;;;;;25.60;17.27;;;256.00;2252.80;;;;;;5410043;26;20438;-72
2024/04/21 07:04:44;;;;;;;16.58;11.10;;;256.00;2252.80;;;;;;5407710;26;20000;-70
2024/04/21 07:07:10;;;;;;;24.05;13.82;;;256.10;2252.80;;;;;;5410129;26;20337;-72
2024/04/21 07:09:40;;;;;;;11.25;8.30;;;256.10;2252.80;;;;;;5408860;26;19999;-72
2024/04/21 07:12:07;;;;;;;21.88;15.15;;;256.10;2252.80;;;;;;5398569;26;20011;-72
2024/04/21 07:14:33;;;;;;;86.53;43.85;;;256.20;2252.80;;;;;;5409661;26;20003;-72
2024/04/21 07:16:58;;;;;;;20.33;12.73;;;256.20;2252.80;;;;;;5413759;26;20018;-71
2024/04/21 07:19:25;;;;;;;24.92;18.13;;;256.30;2252.80;;;;;;5410782;26;19996;-71
2024/04/21 07:21:50;;;;;;;22.15;17.42;;;256.40;2252.80;;;;;;5413287;26;20015;-72
2024/04/21 07:24:16;;;;;;;17.88;14.13;;;256.30;2252.80;;;;;;5412849;26;20007;-73
2024/04/21 07:26:43;;;;;;;21.88;16.20;;;256.40;2252.80;;;;;;5412607;26;19999;-73
2024/04/21 07:29:09;;;;;;;16.58;11.70;;;256.30;2252.80;;;;;;5389075;26;20014;-72
2024/04/21 07:31:35;;;;;;;12.23;10.50;;;256.20;2252.80;;;;;;5412077;26;19995;-72
2024/04/21 07:34:01;;;;;;;16.98;11.77;;;256.20;2252.80;;;;;;5412380;26;20010;-73
2024/04/21 07:36:27;;;;;;;13.75;10.32;;;256.30;2252.80;;;;;;5413283;26;20470;-73
2024/04/21 07:38:53;;;;;;;12.90;8.43;;;256.20;2252.80;;;;;;5367448;26;20019;-78
2024/04/21 07:41:20;;;;;;;10.23;8.18;;;256.30;2252.80;;;;;;5397599;26;20000;-72
2024/04/21 07:43:46;;;;;;;13.75;9.73;;;256.20;2252.80;;;;;;5410789;26;20449;-76
2024/04/21 07:46:12;;;;;;;11.00;9.02;;;256.10;2252.80;;;;;;5413431;26;20073;-77
2024/04/21 07:48:37;;;;;;;11.30;9.45;;;256.20;2252.80;;;;;;5412505;26;20053;-77
2024/04/21 07:51:03;;;;;;;15.73;12.85;;;256.30;2252.80;;;;;;5412573;26;20301;-74
2024/04/21 07:53:29;;;;;;;20.58;15.93;;;256.40;2252.80;;;;;;5412548;26;20019;-72
2024/04/21 07:55:55;;;;;;;43.40;34.67;;;256.40;2252.80;;;;;;5411823;26;19999;-78
2024/04/21 07:58:21;;;;;;;20.30;14.45;;;256.40;2252.80;;;;;;5412087;26;19999;-78
2024/04/21 08:00:47;;;;;;;16.85;12.05;;;256.20;2252.80;;;;;;5411929;26;20003;-72
2024/04/21 08:03:13;;;;;;;18.35;11.10;;;256.20;2252.80;;;;;;5411062;26;20007;-72
2024/04/21 08:05:39;;;;;;;11.95;8.57;;;256.40;2252.80;;;;;;5412471;26;20064;-72
2024/04/21 08:08:04;;;;;;;18.23;15.23;;;256.40;2252.80;;;;;;5410391;26;20016;-73
2024/04/21 08:10:30;;;;;;;16.42;11.77;;;256.50;2252.80;;;;;;5410893;26;20007;-71
2024/04/21 08:12:56;;;;;;;22.27;15.15;;;256.40;2252.80;;;;;;5410390;26;20449;-75
2024/04/21 08:15:22;;;;;;;14.50;11.85;;;256.40;2252.80;;;;;;5412002;26;19999;-72
2024/04/21 08:17:48;;;;;;;16.27;11.48;;;256.40;2252.80;;;;;;5417379;26;20011;-73
2024/04/21 08:20:15;;;;;;;15.80;12.35;;;256.40;2252.80;;;;;;5410921;26;20022;-73
2024/04/21 08:22:41;;;;;;;15.88;11.88;;;256.30;2252.80;;;;;;5411973;26;20072;-72
2024/04/21 08:25:07;;;;;;;19.13;15.20;;;256.90;2252.80;;;;;;5409895;26;20003;-73
2024/04/21 08:27:33;;;;;;;23.60;16.90;;;256.40;2252.80;;;;;;5410679;26;20068;-75
2024/04/21 08:29:59;;;;;;;17.55;13.75;;;256.40;2252.80;;;;;;5410141;26;20441;-73
2024/04/21 08:32:24;;;;;;;26.63;20.50;;;256.40;2252.80;;;;;;5411578;26;20425;-73
2024/04/21 08:34:50;;;;;;;24.52;17.30;;;256.30;2252.80;;;;;;5410940;26;20036;-73
2024/04/21 08:37:16;;;;;;;17.48;13.55;;;256.30;2252.80;;;;;;5410519;26;20000;-73
2024/04/21 08:39:42;;;;;;;21.42;15.70;;;256.30;2252.80;;;;;;5409851;26;20080;-74
2024/04/21 08:42:09;;;;;;;20.30;14.50;;;256.40;2252.80;;;;;;5410564;26;20007;-73
2024/04/21 08:44:35;;;;;;;25.27;19.80;;;256.50;2252.80;;;;;;5409502;26;19999;-73
2024/04/21 08:47:03;;;;;;;37.50;24.52;;;256.60;2252.80;;;;;;5411875;26;19995;-76
2024/04/21 08:49:28;;;;;;;28.08;19.70;;;256.50;2252.80;;;;;;5410847;26;20007;-76
2024/04/21 08:51:58;;;;;;;28.10;18.92;;;256.70;2252.80;;;;;;5411225;26;20003;-75
2024/04/21 08:54:25;;;;;;;25.70;18.33;;;256.80;2252.80;;;;;;5410515;26;20088;-76
2024/04/21 08:56:52;;;;;;;21.52;17.95;;;256.90;2252.80;;;;;;5413583;26;20000;-73
2024/04/21 08:59:23;;;;;;;19.75;14.68;;;281.60;2278.40;;;;;;5409874;26;20040;-76
2024/04/21 09:01:51;;;;;;;16.25;12.02;;;256.90;2252.80;;;;;;5448707;26;20075;-77
2024/04/21 09:04:17;;;;;;;12.50;10.57;;;256.90;2252.80;;;;;;5446086;26;20469;-76
2024/04/21 09:06:45;;;;;;;18.50;13.27;;;256.80;2252.80;;;;;;5447788;26;20043;-76
2024/04/21 09:09:11;;;;;;;18.42;13.10;;;256.90;2252.80;;;;;;5447595;26;20006;-76
2024/04/21 09:11:39;;;;;;;17.92;13.35;;;256.90;2252.80;;;;;;5447179;26;20369;-78
2024/04/21 09:14:05;;;;;;;16.52;14.70;;;281.70;2278.40;;;;;;5446317;26;19991;-77
2024/04/21 09:16:31;;;;;;;14.23;11.80;;;281.60;2278.40;;;;;;5448437;26;20329;-77
2024/04/21 09:19:02;;;;;;;14.90;11.40;;;281.60;2278.40;;;;;;5446885;26;20429;-79
2024/04/21 09:21:29;;;;;;;26.98;24.77;;;256.90;2252.80;;;;;;5407868;26;20350;-77
2024/04/21 09:23:55;;;;;;;9.85;8.50;;;281.70;2278.40;;;;;;5448504;26;20003;-77
2024/04/21 09:26:21;;;;;;;16.02;9.65;;;256.90;2252.80;;;;;;5450139;26;20041;-79
2024/04/21 09:28:47;;;;;;;13.38;11.02;;;256.80;2252.80;;;;;;5447882;26;20448;-78
2024/04/21 09:31:13;;;;;;;13.23;10.07;;;256.80;2252.80;;;;;;5420044;26;20013;-79
2024/04/21 09:33:39;;;;;;;10.88;9.55;;;256.90;2252.80;;;;;;5451852;26;19998;-79
2024/04/21 09:36:05;;;;;;;24.33;17.17;;;256.60;2252.80;;;;;;5456666;26;20044;-80
2024/04/21 09:38:32;;;;;;;11.60;9.45;;;256.80;2252.80;;;;;;5454430;26;20425;-79
2024/04/21 09:41:00;;;;;;;14.13;12.82;;;256.90;2252.80;;;;;;5453839;26;20010;-78
2024/04/21 09:43:28;;;;;;;11.98;9.27;;;281.60;2278.40;;;;;;5452473;26;19995;-81
2024/04/21 09:45:55;;;;;;;10.48;8.50;;;281.90;2278.40;;;;;;5453641;26;20942;-81
2024/04/21 09:48:22;;;;;;;14.45;12.93;;;282.10;2278.40;;;;;;5454502;26;19999;-80
2024/04/21 09:50:49;;;;;;;11.38;8.73;;;281.90;2278.40;;;;;;5444035;26;20023;-83
2024/04/21 09:53:17;;;;;;;12.50;11.32;;;282.10;2278.40;;;;;;5396222;26;20312;-79
2024/04/21 09:55:47;;;;;;;11.93;10.52;;;282.10;2278.40;;;;;;5453200;26;20452;-79
2024/04/21 09:58:13;;;;;;;19.38;14.45;;;282.20;2278.40;;;;;;5452498;26;20016;-78
2024/04/21 10:00:43;;;;;;;10.82;8.82;;;282.00;2278.40;;;;;;5412861;26;20007;-76
2024/04/21 10:03:10;;;;;;;146.13;87.57;;;282.00;2278.40;;;;;;5415283;26;20010;-77
2024/04/21 10:05:38;;;;;;;546.20;307.45;;;282.10;2278.40;;;;;;5398467;26;20000;-75
2024/04/21 10:08:06;;;;;;;66.70;33.10;;;282.20;2278.40;;;;;;5402586;26;20009;-77
2024/04/21 10:10:36;;;;;;;14.18;11.75;;;282.50;2278.40;;;;;;5410391;26;20011;-75
2024/04/21 10:13:03;;;;;;;147.55;133.80;;;282.40;2278.40;;;;;;5406448;26;20027;-76
2024/04/21 10:15:30;;;;;;;15.77;10.70;;;307.40;2304.00;;;;;;5403321;26;20349;-78
2024/04/21 10:18:01;;;;;;;11.75;9.80;;;307.70;2304.00;;;;;;5412500;26;19999;-82
2024/04/21 10:20:37;;;;;;;10.75;9.57;;;307.90;2304.00;;;;;;5405191;26;20066;-77
2024/04/21 10:23:09;;;;;;;9.93;8.85;;;307.90;2304.00;;;;;;5410649;26;20090;-79
2024/04/21 10:25:37;;;;;;;8.38;7.28;;;307.90;2304.00;;;;;;5412472;26;19992;-80
2024/04/21 10:28:04;;;;;;;7.70;6.93;;;307.60;2304.00;;;;;;5390148;26;19999;-77
2024/04/21 10:30:30;;;;;;;9.50;8.00;;;307.60;2304.00;;;;;;5418381;26;20011;-75
2024/04/21 10:33:04;;;;;;;9.07;8.18;;;307.50;2304.00;;;;;;5415449;26;20058;-76
2024/04/21 10:35:36;;;;;;;10.45;9.43;;;307.60;2304.00;;;;;;5415292;26;19992;-76
2024/04/21 10:38:08;;;;;;;14.60;10.98;;;282.40;2278.40;;;;;;5420575;26;20010;-78
2024/04/21 10:40:47;;;;;;;33.00;21.40;;;307.30;2304.00;;;;;;5412258;26;20000;-75
2024/04/21 10:43:15;;;;;;;8.98;7.97;;;282.50;2278.40;;;;;;5403049;26;20018;-75
2024/04/21 10:45:42;;;;;;;70.20;37.47;;;282.40;2278.40;;;;;;5409827;26;20066;-78
2024/04/21 10:48:09;;;;;;;142.38;78.38;;;282.50;2278.40;;;;;;5408929;26;20026;-76
2024/04/21 10:50:39;;;;;;;67.35;39.13;;;307.20;2304.00;;;;;;5412420;26;19999;-74
2024/04/21 10:53:07;;;;;;;12.82;9.02;;;307.20;2304.00;;;;;;5415115;26;20036;-77
2024/04/21 10:55:33;;;;;;;7.55;6.82;;;282.40;2278.40;;;;;;5414767;26;19991;-76
2024/04/21 10:58:00;;;;;;;9.30;8.40;;;282.30;2278.40;;;;;;5414822;26;20141;-75
2024/04/21 11:00:26;;;;;;;37.08;27.08;;;282.30;2278.40;;;;;;5414100;26;20011;-76
2024/04/21 11:02:52;;;;;;;43.10;32.92;;;282.40;2278.40;;;;;;5415413;26;20339;-76
2024/04/21 11:05:18;;;;;;;23.58;18.00;;;282.20;2278.40;;;;;;5415065;26;20014;-77
2024/04/21 11:07:45;;;;;;;13.20;11.70;;;282.40;2278.40;;;;;;5415610;26;20031;-77
2024/04/21 11:10:11;;;;;;;8.00;7.20;;;282.40;2278.40;;;;;;5414916;26;20003;-74
2024/04/21 11:12:37;;;;;;;8.50;7.18;;;282.50;2278.40;;;;;;5413103;26;20459;-77
2024/04/21 11:15:05;;;;;;;7.00;6.30;;;307.30;2304.00;;;;;;5415254;26;19995;-77
2024/04/21 11:17:32;;;;;;;11.77;9.60;;;307.50;2304.00;;;;;;5415945;26;20027;-76
2024/04/21 11:19:58;;;;;;;7.70;6.90;;;307.90;2304.00;;;;;;5416571;26;20041;-78
2024/04/21 11:22:27;;;;;;;14.82;12.00;;;308.10;2304.00;;;;;;5416251;26;20000;-76
2024/04/21 11:24:53;;;;;;;8.60;7.75;;;332.90;2329.60;;;;;;5414981;26;20364;-77
2024/04/21 11:27:19;;;;;;;9.43;8.38;;;333.00;2329.60;;;;;;5414766;26;20010;-77
2024/04/21 11:29:47;;;;;;;7.15;6.18;;;333.10;2329.60;;;;;;5413514;26;20015;-79
2024/04/21 11:32:15;;;;;;;8.68;6.97;;;332.80;2329.60;;;;;;5415549;26;19999;-77
2024/04/21 11:34:41;;;;;;;8.68;7.78;;;332.80;2329.60;;;;;;5416628;26;20068;-79
2024/04/21 11:37:21;;;;;;;11.90;10.80;;;332.80;2329.60;;;;;;5416235;26;19999;-78
2024/04/21 11:39:47;;;;;;;13.63;11.18;;;308.00;2304.00;;;;;;5414971;26;20014;-77
2024/04/21 11:42:13;;;;;;;9.23;8.32;;;308.10;2304.00;;;;;;5415346;26;20003;-79
2024/04/21 11:44:40;;;;;;;8.30;7.50;;;308.00;2304.00;;;;;;5414321;26;20010;-74
2024/04/21 11:47:10;;;;;;;66.53;33.35;;;308.10;2304.00;;;;;;5417142;26;20007;-80
2024/04/21 11:49:36;;;;;;;6.57;5.93;;;332.80;2329.60;;;;;;5415454;26;20068;-80
2024/04/21 11:52:02;;;;;;;18.10;16.20;;;307.80;2304.00;;;;;;5414522;26;20250;-79
2024/04/21 11:54:28;;;;;;;9.68;8.63;;;307.80;2304.00;;;;;;5415670;26;20456;-79
2024/04/21 11:56:55;;;;;;;15.27;9.88;;;307.70;2304.00;;;;;;5415855;26;20072;-78
2024/04/21 11:59:20;;;;;;;28.98;21.73;;;307.80;2304.00;;;;;;5445519;26;20009;-76
2024/04/21 12:01:47;;;;;;;64.05;50.63;;;307.60;2304.00;;;;;;5424517;26;19998;-79
2024/04/21 12:04:12;;;;;;;32.90;24.35;;;307.50;2304.00;;;;;;5452806;26;20006;-77